Caribe Alliance — WDC9383 — position and weather

sailwx.info

Track history (hours):
 
Tides and Currents Weather Stations Pressure Air Temp Water Temp Dewpoint Dewpoint Depression Visibility Wind Speed Wind Dir Waves Ship Positions

Caribe Alliance

Owner: Gulf Caribe Maritime, Redondo Beach, CA. More information available from US FCC via Universal Licensing System and Coast Guard Vessel Documentation Center.

Last reported at 2016-May-03 23:21 UTC. Time now 2016-May-03 23:59 UTC.
Position N 33°55' W 118°27'.

Length 19 m; draft 3.3 m.

Type: Port tender. MMSI: 367101530.

Date/timePositionNaut miles runAvg speedWind from/ knotsBaromVisibWave heightAir tempDewpointWater temp
2016-May-03 23:21N 33°55' W 118°27'0 0.0
2016-May-03 22:24N 33°55' W 118°27'0 0.0
2016-May-03 20:30N 33°55' W 118°27'0 0.0
2016-May-03 19:04N 33°55' W 118°27'0 0.0
2016-May-03 17:12N 33°55' W 118°27'0 0.4
2016-May-03 16:33N 33°55' W 118°27'0 0.2
2016-May-03 15:33N 33°55' W 118°27'1 1.2
2016-May-03 14:22N 33°54' W 118°28'4 4.4
2016-May-03 13:33N 33°51' W 118°25'2 1.6
2016-May-03 12:31N 33°51' W 118°24'0 0.0
2016-May-03 11:31N 33°51' W 118°24'0 0.0
2016-May-03 10:31N 33°51' W 118°24'4 4.2
2016-May-03 09:33N 33°54' W 118°26'1 1.3
2016-May-03 08:33N 33°55' W 118°27'0 0.0
2016-May-03 01:07N 33°55' W 118°27'0 0.0
2016-May-03 00:32N 33°55' W 118°27'0 0.0
2016-May-02 19:19N 33°55' W 118°27'0 0.1
2016-May-02 16:17N 33°55' W 118°27'0 0.1
2016-May-02 15:28N 33°55' W 118°27'0 0.2
2016-May-02 14:32N 33°55' W 118°27'1 0.8
2016-May-02 13:33N 33°54' W 118°27'4 4.3
2016-May-02 12:32N 33°51' W 118°24'0 0.0
2016-May-02 11:33N 33°51' W 118°24'0 0.0
2016-May-02 10:33N 33°51' W 118°24'0 0.0
2016-May-02 09:24N 33°51' W 118°24'0 0.0
2016-May-02 08:30N 33°51' W 118°24'0 0.0
2016-May-02 07:33N 33°51' W 118°24'0 0.0
2016-May-02 06:30N 33°51' W 118°24'0 0.0
2016-May-02 05:33N 33°51' W 118°24'0 0.0
2016-May-02 03:27N 33°51' W 118°24'0 0.0
2016-May-02 02:15N 33°51' W 118°24'0 0.0
2016-May-02 01:24N 33°51' W 118°24'0 0.0
2016-May-02 00:33N 33°51' W 118°24'0 0.0
2016-May-01 23:33N 33°51' W 118°24'0 0.0
2016-May-01 22:21N 33°51' W 118°24'0 0.0
2016-May-01 16:30N 33°51' W 118°24'0 0.0
2016-May-01 15:33N 33°51' W 118°24'0 0.0
2016-May-01 14:33N 33°51' W 118°24'0 0.0
2016-May-01 11:06N 33°51' W 118°24'0 0.0
2016-May-01 10:33N 33°51' W 118°24'0 0.0
2016-May-01 09:27N 33°51' W 118°24'0 0.0
2016-May-01 08:33N 33°51' W 118°24'0 0.0
2016-May-01 07:30N 33°51' W 118°24'0 0.0
2016-May-01 03:33N 33°51' W 118°24'0 0.0
2016-May-01 02:33N 33°51' W 118°24'0 0.0
2016-May-01 01:27N 33°51' W 118°24'0 0.0
2016-Apr-30 22:33N 33°51' W 118°24'0 0.0
2016-Apr-30 21:33N 33°51' W 118°24'0 0.0
2016-Apr-30 17:18N 33°51' W 118°24'0 0.0
2016-Apr-30 16:33N 33°51' W 118°24'0 0.0
2016-Apr-30 15:33N 33°51' W 118°24'0 0.0
2016-Apr-30 14:33N 33°51' W 118°24'0 0.0
2016-Apr-30 13:33N 33°51' W 118°24'0 0.0
2016-Apr-30 12:18N 33°51' W 118°24'0 0.0
2016-Apr-30 11:30N 33°51' W 118°24'0 0.0
2016-Apr-30 10:27N 33°51' W 118°24'0 0.0
2016-Apr-30 09:27N 33°51' W 118°24'0 0.0
2016-Apr-30 08:18N 33°51' W 118°24'0 0.0
2016-Apr-30 07:30N 33°51' W 118°24'0 0.0
2016-Apr-30 06:30N 33°51' W 118°24'0 0.0
2016-Apr-30 03:27N 33°51' W 118°24'0 0.0
2016-Apr-30 02:33N 33°51' W 118°24'0 0.0
2016-Apr-30 01:30N 33°51' W 118°24'0 0.0
2016-Apr-30 00:33N 33°51' W 118°24'0 0.0
2016-Apr-29 23:33N 33°51' W 118°24'0 0.0
2016-Apr-29 22:33N 33°51' W 118°24'0 0.0
2016-Apr-29 16:33N 33°51' W 118°24'0 0.0
2016-Apr-29 15:15N 33°51' W 118°24'0 0.0
2016-Apr-29 14:30N 33°51' W 118°24'0 0.0
2016-Apr-29 13:33N 33°51' W 118°24'0 0.0
2016-Apr-29 12:06N 33°51' W 118°24'0 0.0
2016-Apr-29 11:21N 33°51' W 118°24'0 0.0
2016-Apr-29 10:33N 33°51' W 118°24'0 0.0
2016-Apr-29 08:30N 33°51' W 118°24'0 0.0
2016-Apr-29 07:33N 33°51' W 118°24'0 0.0
2016-Apr-29 06:27N 33°51' W 118°24'0 0.0
2016-Apr-29 05:30N 33°51' W 118°24'0 0.0
2016-Apr-29 04:33N 33°51' W 118°24'0 0.0
2016-Apr-29 03:33N 33°51' W 118°24'0 0.0
2016-Apr-29 01:06N 33°51' W 118°24'0 0.0
2016-Apr-28 23:24N 33°51' W 118°24'0 0.0
2016-Apr-28 15:06N 33°51' W 118°24'0 0.0
2016-Apr-28 12:09N 33°51' W 118°24'0 0.0
2016-Apr-28 11:21N 33°51' W 118°24'0 0.0
2016-Apr-28 10:30N 33°51' W 118°24'0 0.0
2016-Apr-28 08:33N 33°51' W 118°24'0 0.0
2016-Apr-28 07:24N 33°51' W 118°24'0 0.0
2016-Apr-28 03:18N 33°51' W 118°24'0 0.0
2016-Apr-28 02:27N 33°51' W 118°24'0 0.0
2016-Apr-27 21:30N 33°51' W 118°24'0 0.0
2016-Apr-27 20:30N 33°51' W 118°24'0 0.0
2016-Apr-27 19:33N 33°51' W 118°24'0 0.0
2016-Apr-27 18:27N 33°51' W 118°24'0 0.0
2016-Apr-27 17:15N 33°51' W 118°24'0 0.0
2016-Apr-27 16:27N 33°51' W 118°24'0 0.0
2016-Apr-27 15:33N 33°51' W 118°24'0 0.0
2016-Apr-27 13:30N 33°51' W 118°24'0 0.0
2016-Apr-27 12:33N 33°51' W 118°24'0 0.0
2016-Apr-27 11:27N 33°51' W 118°24'0 0.0
2016-Apr-27 10:33N 33°51' W 118°24'0 0.0
2016-Apr-27 09:33N 33°51' W 118°24'0 0.0
2016-Apr-27 08:30N 33°51' W 118°24'0 0.0
2016-Apr-27 07:33N 33°51' W 118°24'0 0.0
2016-Apr-27 06:33N 33°51' W 118°24'0 0.0
2016-Apr-27 05:33N 33°51' W 118°24'0 0.0
2016-Apr-27 04:33N 33°51' W 118°24'0 0.0
2016-Apr-27 03:30N 33°51' W 118°24'0 0.0
2016-Apr-27 02:33N 33°51' W 118°24'0 0.0
2016-Apr-26 22:09N 33°51' W 118°24'0 0.0
2016-Apr-26 21:33N 33°51' W 118°24'0 0.0
2016-Apr-26 20:33N 33°51' W 118°24'0 0.0
2016-Apr-26 19:30N 33°51' W 118°24'0 0.0
2016-Apr-26 18:33N 33°51' W 118°24'0 0.0
2016-Apr-26 17:18N 33°51' W 118°24'0 0.0
2016-Apr-26 16:33N 33°51' W 118°24'0 0.0
2016-Apr-26 15:33N 33°51' W 118°24'0 0.0
2016-Apr-26 14:33N 33°51' W 118°24'0 0.0
2016-Apr-26 10:33N 33°51' W 118°24'0 0.0
2016-Apr-26 09:21N 33°51' W 118°24'0 0.0
2016-Apr-26 08:15N 33°51' W 118°24'0 0.0
2016-Apr-26 07:30N 33°51' W 118°24'0 0.0
2016-Apr-26 05:27N 33°51' W 118°24'0 0.0
2016-Apr-25 22:33N 33°51' W 118°24'0 0.0
2016-Apr-25 21:27N 33°51' W 118°24'0 0.0
2016-Apr-25 20:09N 33°51' W 118°24'0 0.0
2016-Apr-25 13:09N 33°51' W 118°24'0 0.0
2016-Apr-25 10:21N 33°51' W 118°24'0 0.0
2016-Apr-25 09:33N 33°51' W 118°24'0 0.0
2016-Apr-25 07:33N 33°51' W 118°24'0 0.0
2016-Apr-25 06:30N 33°51' W 118°24'0 0.0
2016-Apr-25 05:33N 33°51' W 118°24'0 0.0
2016-Apr-25 04:33N 33°51' W 118°24'0 0.0
2016-Apr-24 22:21N 33°51' W 118°24'0 0.4
2016-Apr-24 21:19N 33°51' W 118°24'5 6.3
2016-Apr-24 20:32N 33°55' W 118°27'0 0.0
2016-Apr-24 19:26N 33°55' W 118°27'0 0.1
2016-Apr-24 18:26N 33°55' W 118°27'0 0.2
2016-Apr-24 16:25N 33°55' W 118°27'0 0.1
2016-Apr-24 15:28N 33°55' W 118°27'0 0.0
2016-Apr-24 14:19N 33°55' W 118°27'0 0.0
2016-Apr-24 13:25N 33°55' W 118°27'0 0.0
2016-Apr-24 12:22N 33°55' W 118°27'0 0.0
2016-Apr-24 09:20N 33°55' W 118°27'0 0.0
2016-Apr-24 06:30N 33°55' W 118°27'0 0.0
2016-Apr-24 05:33N 33°55' W 118°27'0 0.0
2016-Apr-24 01:32N 33°55' W 118°27'  
Track history (hours):
 
Tides and Currents Weather Stations Pressure Air Temp Water Temp Dewpoint Dewpoint Depression Visibility Wind Speed Wind Dir Waves Ship Positions

Caribe Alliance

Owner: Gulf Caribe Maritime, Redondo Beach, CA. More information available from US FCC via Universal Licensing System and Coast Guard Vessel Documentation Center.

Last reported at 2016-May-03 23:21 UTC. Time now 2016-May-03 23:59 UTC.
Position N 33°55' W 118°27'.

Length 19 m; draft 3.3 m.

Type: Port tender. MMSI: 367101530.

Date/timePositionNaut miles runAvg speedWind from/ knotsBaromVisibWave heightAir tempDewpointWater temp
2016-May-03 23:21N 33°55' W 118°27'0 0.0
2016-May-03 22:24N 33°55' W 118°27'0 0.0
2016-May-03 20:30N 33°55' W 118°27'0 0.0
2016-May-03 19:04N 33°55' W 118°27'0 0.0
2016-May-03 17:12N 33°55' W 118°27'0 0.4
2016-May-03 16:33N 33°55' W 118°27'0 0.2
2016-May-03 15:33N 33°55' W 118°27'1 1.2
2016-May-03 14:22N 33°54' W 118°28'4 4.4
2016-May-03 13:33N 33°51' W 118°25'2 1.6
2016-May-03 12:31N 33°51' W 118°24'0 0.0
2016-May-03 11:31N 33°51' W 118°24'0 0.0
2016-May-03 10:31N 33°51' W 118°24'4 4.2
2016-May-03 09:33N 33°54' W 118°26'1 1.3
2016-May-03 08:33N 33°55' W 118°27'0 0.0
2016-May-03 01:07N 33°55' W 118°27'0 0.0
2016-May-03 00:32N 33°55' W 118°27'0 0.0
2016-May-02 19:19N 33°55' W 118°27'0 0.1
2016-May-02 16:17N 33°55' W 118°27'0 0.1
2016-May-02 15:28N 33°55' W 118°27'0 0.2
2016-May-02 14:32N 33°55' W 118°27'1 0.8
2016-May-02 13:33N 33°54' W 118°27'4 4.3
2016-May-02 12:32N 33°51' W 118°24'0 0.0
2016-May-02 11:33N 33°51' W 118°24'0 0.0
2016-May-02 10:33N 33°51' W 118°24'0 0.0
2016-May-02 09:24N 33°51' W 118°24'0 0.0
2016-May-02 08:30N 33°51' W 118°24'0 0.0
2016-May-02 07:33N 33°51' W 118°24'0 0.0
2016-May-02 06:30N 33°51' W 118°24'0 0.0
2016-May-02 05:33N 33°51' W 118°24'0 0.0
2016-May-02 03:27N 33°51' W 118°24'0 0.0
2016-May-02 02:15N 33°51' W 118°24'0 0.0
2016-May-02 01:24N 33°51' W 118°24'0 0.0
2016-May-02 00:33N 33°51' W 118°24'0 0.0
2016-May-01 23:33N 33°51' W 118°24'0 0.0
2016-May-01 22:21N 33°51' W 118°24'0 0.0
2016-May-01 16:30N 33°51' W 118°24'0 0.0
2016-May-01 15:33N 33°51' W 118°24'0 0.0
2016-May-01 14:33N 33°51' W 118°24'0 0.0
2016-May-01 11:06N 33°51' W 118°24'0 0.0
2016-May-01 10:33N 33°51' W 118°24'0 0.0
2016-May-01 09:27N 33°51' W 118°24'0 0.0
2016-May-01 08:33N 33°51' W 118°24'0 0.0
2016-May-01 07:30N 33°51' W 118°24'0 0.0
2016-May-01 03:33N 33°51' W 118°24'0 0.0
2016-May-01 02:33N 33°51' W 118°24'0 0.0
2016-May-01 01:27N 33°51' W 118°24'0 0.0
2016-Apr-30 22:33N 33°51' W 118°24'0 0.0
2016-Apr-30 21:33N 33°51' W 118°24'0 0.0
2016-Apr-30 17:18N 33°51' W 118°24'0 0.0
2016-Apr-30 16:33N 33°51' W 118°24'0 0.0
2016-Apr-30 15:33N 33°51' W 118°24'0 0.0
2016-Apr-30 14:33N 33°51' W 118°24'0 0.0
2016-Apr-30 13:33N 33°51' W 118°24'0 0.0
2016-Apr-30 12:18N 33°51' W 118°24'0 0.0
2016-Apr-30 11:30N 33°51' W 118°24'0 0.0
2016-Apr-30 10:27N 33°51' W 118°24'0 0.0
2016-Apr-30 09:27N 33°51' W 118°24'0 0.0
2016-Apr-30 08:18N 33°51' W 118°24'0 0.0
2016-Apr-30 07:30N 33°51' W 118°24'0 0.0
2016-Apr-30 06:30N 33°51' W 118°24'0 0.0
2016-Apr-30 03:27N 33°51' W 118°24'0 0.0
2016-Apr-30 02:33N 33°51' W 118°24'0 0.0
2016-Apr-30 01:30N 33°51' W 118°24'0 0.0
2016-Apr-30 00:33N 33°51' W 118°24'0 0.0
2016-Apr-29 23:33N 33°51' W 118°24'0 0.0
2016-Apr-29 22:33N 33°51' W 118°24'0 0.0
2016-Apr-29 16:33N 33°51' W 118°24'0 0.0
2016-Apr-29 15:15N 33°51' W 118°24'0 0.0
2016-Apr-29 14:30N 33°51' W 118°24'0 0.0
2016-Apr-29 13:33N 33°51' W 118°24'0 0.0
2016-Apr-29 12:06N 33°51' W 118°24'0 0.0
2016-Apr-29 11:21N 33°51' W 118°24'0 0.0
2016-Apr-29 10:33N 33°51' W 118°24'0 0.0
2016-Apr-29 08:30N 33°51' W 118°24'0 0.0
2016-Apr-29 07:33N 33°51' W 118°24'0 0.0
2016-Apr-29 06:27N 33°51' W 118°24'0 0.0
2016-Apr-29 05:30N 33°51' W 118°24'0 0.0
2016-Apr-29 04:33N 33°51' W 118°24'0 0.0
2016-Apr-29 03:33N 33°51' W 118°24'0 0.0
2016-Apr-29 01:06N 33°51' W 118°24'0 0.0
2016-Apr-28 23:24N 33°51' W 118°24'0 0.0
2016-Apr-28 15:06N 33°51' W 118°24'0 0.0
2016-Apr-28 12:09N 33°51' W 118°24'0 0.0
2016-Apr-28 11:21N 33°51' W 118°24'0 0.0
2016-Apr-28 10:30N 33°51' W 118°24'0 0.0
2016-Apr-28 08:33N 33°51' W 118°24'0 0.0
2016-Apr-28 07:24N 33°51' W 118°24'0 0.0
2016-Apr-28 03:18N 33°51' W 118°24'0 0.0
2016-Apr-28 02:27N 33°51' W 118°24'0 0.0
2016-Apr-27 21:30N 33°51' W 118°24'0 0.0
2016-Apr-27 20:30N 33°51' W 118°24'0 0.0
2016-Apr-27 19:33N 33°51' W 118°24'0 0.0
2016-Apr-27 18:27N 33°51' W 118°24'0 0.0
2016-Apr-27 17:15N 33°51' W 118°24'0 0.0
2016-Apr-27 16:27N 33°51' W 118°24'0 0.0
2016-Apr-27 15:33N 33°51' W 118°24'0 0.0
2016-Apr-27 13:30N 33°51' W 118°24'0 0.0
2016-Apr-27 12:33N 33°51' W 118°24'0 0.0
2016-Apr-27 11:27N 33°51' W 118°24'0 0.0
2016-Apr-27 10:33N 33°51' W 118°24'0 0.0
2016-Apr-27 09:33N 33°51' W 118°24'0 0.0
2016-Apr-27 08:30N 33°51' W 118°24'0 0.0
2016-Apr-27 07:33N 33°51' W 118°24'0 0.0
2016-Apr-27 06:33N 33°51' W 118°24'0 0.0
2016-Apr-27 05:33N 33°51' W 118°24'0 0.0
2016-Apr-27 04:33N 33°51' W 118°24'0 0.0
2016-Apr-27 03:30N 33°51' W 118°24'0 0.0
2016-Apr-27 02:33N 33°51' W 118°24'0 0.0
2016-Apr-26 22:09N 33°51' W 118°24'0 0.0
2016-Apr-26 21:33N 33°51' W 118°24'0 0.0
2016-Apr-26 20:33N 33°51' W 118°24'0 0.0
2016-Apr-26 19:30N 33°51' W 118°24'0 0.0
2016-Apr-26 18:33N 33°51' W 118°24'0 0.0
2016-Apr-26 17:18N 33°51' W 118°24'0 0.0
2016-Apr-26 16:33N 33°51' W 118°24'0 0.0
2016-Apr-26 15:33N 33°51' W 118°24'0 0.0
2016-Apr-26 14:33N 33°51' W 118°24'0 0.0
2016-Apr-26 10:33N 33°51' W 118°24'0 0.0
2016-Apr-26 09:21N 33°51' W 118°24'0 0.0
2016-Apr-26 08:15N 33°51' W 118°24'0 0.0
2016-Apr-26 07:30N 33°51' W 118°24'0 0.0
2016-Apr-26 05:27N 33°51' W 118°24'0 0.0
2016-Apr-25 22:33N 33°51' W 118°24'0 0.0
2016-Apr-25 21:27N 33°51' W 118°24'0 0.0
2016-Apr-25 20:09N 33°51' W 118°24'0 0.0
2016-Apr-25 13:09N 33°51' W 118°24'0 0.0
2016-Apr-25 10:21N 33°51' W 118°24'0 0.0
2016-Apr-25 09:33N 33°51' W 118°24'0 0.0
2016-Apr-25 07:33N 33°51' W 118°24'0 0.0
2016-Apr-25 06:30N 33°51' W 118°24'0 0.0
2016-Apr-25 05:33N 33°51' W 118°24'0 0.0
2016-Apr-25 04:33N 33°51' W 118°24'0 0.0
2016-Apr-24 22:21N 33°51' W 118°24'0 0.4
2016-Apr-24 21:19N 33°51' W 118°24'5 6.3
2016-Apr-24 20:32N 33°55' W 118°27'0 0.0
2016-Apr-24 19:26N 33°55' W 118°27'0 0.1
2016-Apr-24 18:26N 33°55' W 118°27'0 0.2
2016-Apr-24 16:25N 33°55' W 118°27'0 0.1
2016-Apr-24 15:28N 33°55' W 118°27'0 0.0
2016-Apr-24 14:19N 33°55' W 118°27'0 0.0
2016-Apr-24 13:25N 33°55' W 118°27'0 0.0
2016-Apr-24 12:22N 33°55' W 118°27'0 0.0
2016-Apr-24 09:20N 33°55' W 118°27'0 0.0
2016-Apr-24 06:30N 33°55' W 118°27'0 0.0
2016-Apr-24 05:33N 33°55' W 118°27'0 0.0
2016-Apr-24 01:32N 33°55' W 118°27'  

Dump ship's entire track history